Hugo, Oregon
Current Conditions -  °F | °C
As of 10:56 AM on Wednesday 26 Nov 2014 (Local Time) from KSXT Reporting Station
Clear Clear  
Wind Chill: 52°   Ceiling: Unl
Heat Index: 52°   Visibility: 10mi
Dew Point: 38°   Wind: 14mph
Humidity: 59%   Direction: 170°S
Pressure: 30.23"   Gusts: NA
Location:  42.6114°N, 123.7°W
Report Text: KSXT 261856Z AUTO 17012KT 10SM CLR 11/03 A3023 RMK AO2 SLP225 T01110033
Loading
Personal Weather Stations






























Interactive Weather Map New forecast layout! Learn more

10-Day Weather Forecast

Advertisements
Track Severe Weather on mobile